Weather History for O'Neill, NE

Change the Weather History Date:

Wednesday, December 12, 2012

  Actual Average Record
Temperature  
Mean Temperature 40 °F -  
Max Temperature 53 °F 38 °F 60 °F (1990)
Min Temperature 28 °F 15 °F -18 °F (1962)
Degree Days  
Heating Degree Days 24    
Moisture  
Dew Point 13 °F    
Average Humidity 38    
Maximum Humidity 52    
Minimum Humidity 20    
Precipitation  
Precipitation 0.00 in - - ()
Sea Level Pressure  
Sea Level Pressure 29.77 in    
Wind  
Wind Speed 11 mph (SSW)    
Max Wind Speed 17 mph    
Max Gust Speed 22 mph    
Visibility 10 miles    
Events      
Averages and records for this station are not official NWS values.
T = Trace of Precipitation, MM = Missing Value Source: NWS Daily Summary

Daily Weather History Graph

Daily Weather History Graph

Search for Another Location

Airport:

Trip Planner

Search our weather history database for the weather conditions in past years. The results will help you decide how hot, cold, wet, or windy it might be!

Date:

Astronomy

Dec. 12, 2012 Rise Set
Actual Time 7:55 AM CST 5:02 PM CST
Civil Twilight 7:23 AM CST 5:33 PM CST
Nautical Twilight 6:48 AM CST 6:09 PM CST
Astronomical Twilight 6:13 AM CST 6:43 PM CST
Moon 7:01 AM CST (12/12) 4:41 PM CST (12/12)
Length of Visible Light 10h 10m
Length of Day
9h 06m
Waning Crescent, 1% of the Moon is Illuminated
Dec 12
Waning Crescent
Dec 13
New
Dec 19
First Quarter
Dec 28
Full
Jan 4
Last Quarter

Hourly Weather History & Observations

Time (CST) Temp. Windchill Dew Point Humidity Pressure Visibility Wind Dir Wind Speed Gust Speed Precip Events Conditions
12:15 AM 30.2 °F 21.3 °F 10.8 °F 44% 29.79 in 10.0 mi South 10.4 mph - N/A   Clear
12:35 AM 30.0 °F 21.7 °F 10.9 °F 45% 29.78 in 10.0 mi South 9.2 mph - N/A   Clear
12:55 AM 30.0 °F 21.1 °F 11.3 °F 46% 29.77 in 10.0 mi South 10.4 mph - N/A   Clear
1:15 AM 30.0 °F 20.0 °F 11.7 °F 46% 29.77 in 10.0 mi SSW 12.7 mph 16.1 mph N/A   Clear
1:35 AM 29.3 °F 20.2 °F 11.8 °F 48% 29.77 in 10.0 mi South 10.4 mph - N/A   Clear
1:55 AM 29.3 °F 19.1 °F 12.2 °F 49% 29.76 in 10.0 mi SSW 12.7 mph - N/A   Clear
2:15 AM 30.7 °F 20.9 °F 12.7 °F 47% 29.76 in 10.0 mi SSW 12.7 mph 18.4 mph N/A   Clear
2:35 AM 31.3 °F 21.1 °F 12.9 °F 47% 29.76 in 10.0 mi SSW 13.8 mph - N/A   Clear
2:55 AM 31.6 °F 23.1 °F 12.9 °F 46% 29.76 in 10.0 mi SSW 10.4 mph - N/A   Clear
3:15 AM 31.5 °F 22.9 °F 13.1 °F 47% 29.76 in 10.0 mi SSW 10.4 mph - N/A   Clear
3:35 AM 31.6 °F 23.7 °F 13.1 °F 46% 29.75 in 10.0 mi SSW 9.2 mph - N/A   Clear
3:55 AM 31.6 °F 22.6 °F 13.1 °F 46% 29.75 in 10.0 mi SSW 11.5 mph - N/A   Clear
4:15 AM 31.5 °F 23.5 °F 13.1 °F 47% 29.75 in 10.0 mi SSW 9.2 mph - N/A   Clear
4:35 AM 31.5 °F 22.9 °F 12.9 °F 46% 29.75 in 10.0 mi SSW 10.4 mph - N/A   Clear
4:55 AM 31.1 °F 23.1 °F 12.9 °F 47% 29.75 in 10.0 mi SSW 9.2 mph 16.1 mph N/A   Clear
5:15 AM 30.0 °F 21.7 °F 12.9 °F 49% 29.75 in 10.0 mi SSW 9.2 mph - N/A   Clear
5:35 AM 30.0 °F 21.7 °F 13.1 °F 49% 29.76 in 10.0 mi SSW 9.2 mph - N/A   Clear
5:55 AM 30.2 °F 22.6 °F 13.1 °F 49% 29.77 in 10.0 mi SSW 8.1 mph - N/A   Clear
6:15 AM 29.7 °F 20.1 °F 13.1 °F 50% 29.76 in 10.0 mi SSW 11.5 mph 17.3 mph N/A   Clear
6:35 AM 29.8 °F 20.9 °F 13.1 °F 50% 29.77 in 10.0 mi SSW 10.4 mph - N/A   Clear
6:55 AM 29.3 °F 20.2 °F 13.1 °F 51% 29.77 in 10.0 mi SW 10.4 mph - N/A   Clear
7:15 AM 28.6 °F 19.9 °F 12.9 °F 52% 29.77 in 10.0 mi SSW 9.2 mph - N/A   Clear
7:35 AM 28.4 °F 18.5 °F 12.9 °F 52% 29.76 in 10.0 mi SSW 11.5 mph - N/A   Clear
7:55 AM 28.6 °F 19.9 °F 12.9 °F 52% 29.77 in 10.0 mi SSW 9.2 mph - N/A   Clear
8:15 AM 29.1 °F 20.0 °F 12.9 °F 51% 29.78 in 10.0 mi SSW 10.4 mph - N/A   Clear
8:35 AM 30.0 °F 20.0 °F 12.9 °F 49% 29.78 in 10.0 mi SSW 12.7 mph - N/A   Clear
8:55 AM 30.0 °F 21.1 °F 13.1 °F 49% 29.78 in 10.0 mi SSW 10.4 mph - N/A   Clear
9:15 AM 31.3 °F 22.7 °F 12.9 °F 47% 29.79 in 10.0 mi SSW 10.4 mph - N/A   Clear
9:35 AM 33.1 °F 23.9 °F 13.1 °F 44% 29.78 in 10.0 mi SSW 12.7 mph - N/A   Clear
9:55 AM 35.6 °F 26.6 °F 12.0 °F 38% 29.78 in 10.0 mi SSW 13.8 mph - N/A   Clear
10:15 AM 37.4 °F 28.9 °F 12.0 °F 35% 29.79 in 10.0 mi SSW 13.8 mph - N/A   Clear
10:35 AM 39.2 °F 30.2 °F 12.0 °F 33% 29.79 in 10.0 mi SSW 17.3 mph - N/A   Clear
10:55 AM 40.8 °F 32.6 °F 12.2 °F 31% 29.80 in 10.0 mi SSW 16.1 mph - N/A   Clear
11:15 AM 42.3 °F 34.8 °F 12.6 °F 30% 29.79 in 10.0 mi SSW 15.0 mph - N/A   Clear
11:35 AM 44.2 °F 38.0 °F 12.9 °F 28% 29.79 in 10.0 mi SSW 12.7 mph 19.6 mph N/A   Clear
11:55 AM 46.2 °F 40.1 °F 12.9 °F 26% 29.77 in 10.0 mi South 13.8 mph - N/A   Clear
12:15 PM 47.5 °F - 12.7 °F 25% 29.76 in 10.0 mi South 11.5 mph - N/A   Clear
12:35 PM 48.9 °F - 12.9 °F 24% 29.76 in 10.0 mi South 16.1 mph - N/A   Clear
12:55 PM 47.7 °F - 12.9 °F 25% 29.76 in 10.0 mi SSW 16.1 mph - N/A   Clear
1:15 PM 47.8 °F - 12.9 °F 25% 29.75 in 10.0 mi South 16.1 mph - N/A   Clear
1:35 PM 48.2 °F - 12.2 °F 24% 29.74 in 10.0 mi South 16.1 mph 20.7 mph N/A   Clear
1:55 PM 48.2 °F - 13.1 °F 24% 29.74 in 10.0 mi South 15.0 mph - N/A   Clear
2:15 PM 48.4 °F - 13.1 °F 24% 29.74 in 10.0 mi SSW 13.8 mph - N/A   Clear
2:35 PM 51.1 °F - 13.3 °F 22% 29.73 in 10.0 mi South 15.0 mph - N/A   Clear
2:55 PM 52.5 °F - 12.9 °F 21% 29.73 in 10.0 mi SSW 17.3 mph 21.9 mph N/A   Clear
3:15 PM 52.7 °F - 12.6 °F 20% 29.74 in 10.0 mi SSW 16.1 mph 21.9 mph N/A   Clear
3:35 PM 52.7 °F - 12.4 °F 20% 29.73 in 10.0 mi South 13.8 mph 19.6 mph N/A   Clear
3:55 PM 53.2 °F - 12.2 °F 20% 29.73 in 10.0 mi South 16.1 mph - N/A   Clear
4:15 PM 52.0 °F - 12.0 °F 20% 29.74 in 10.0 mi South 13.8 mph - N/A   Clear
4:35 PM 50.4 °F - 12.0 °F 22% 29.75 in 10.0 mi South 12.7 mph - N/A   Clear
4:55 PM 47.3 °F - 12.2 °F 24% 29.76 in 10.0 mi South 8.1 mph - N/A   Clear
5:15 PM 45.7 °F 40.6 °F 12.9 °F 27% 29.77 in 10.0 mi South 10.4 mph - N/A   Clear
5:35 PM 43.9 °F 38.3 °F 12.9 °F 29% 29.78 in 10.0 mi South 10.4 mph - N/A   Clear
5:55 PM 43.0 °F 37.7 °F 12.6 °F 29% 29.78 in 10.0 mi South 9.2 mph - N/A   Clear
6:15 PM 39.6 °F 34.0 °F 12.2 °F 33% 29.78 in 10.0 mi South 8.1 mph - N/A   Clear
6:35 PM 39.2 °F 33.6 °F 12.2 °F 33% 29.78 in 10.0 mi South 8.1 mph - N/A   Clear
6:55 PM 37.0 °F 31.0 °F 12.4 °F 36% 29.78 in 10.0 mi South 8.1 mph - N/A   Clear
7:15 PM 36.9 °F 33.1 °F 12.9 °F 37% 29.79 in 10.0 mi South 4.6 mph - N/A   Clear
7:35 PM 35.8 °F 30.1 °F 13.1 °F 39% 29.79 in 10.0 mi South 6.9 mph - N/A   Clear
7:55 PM 37.4 °F 30.8 °F 14.0 °F 38% 29.79 in 10.0 mi South 9.2 mph - N/A   Clear
8:15 PM 39.0 °F 32.3 °F 13.6 °F 36% 29.79 in 10.0 mi South 10.4 mph - N/A   Clear
8:35 PM 38.8 °F 31.6 °F 13.6 °F 36% 29.79 in 10.0 mi South 11.5 mph - N/A   Clear
8:55 PM 37.6 °F 31.6 °F 13.8 °F 38% 29.80 in 10.0 mi South 8.1 mph - N/A   Clear
9:15 PM 37.4 °F 30.8 °F 14.0 °F 38% 29.79 in 10.0 mi South 9.2 mph - N/A   Clear
9:35 PM 36.9 °F 30.7 °F 14.0 °F 39% 29.79 in 10.0 mi SSW 8.1 mph - N/A   Clear
9:55 PM 37.2 °F 30.6 °F 14.4 °F 39% 29.79 in 10.0 mi SSW 9.2 mph - N/A   Clear
10:15 PM 38.1 °F 30.7 °F 14.4 °F 38% 29.79 in 10.0 mi SSW 11.5 mph - N/A   Clear
10:35 PM 38.5 °F 32.1 °F 14.4 °F 37% 29.79 in 10.0 mi SSW 9.2 mph - N/A   Clear
10:55 PM 37.9 °F 32.1 °F 14.4 °F 38% 29.80 in 10.0 mi SW 8.1 mph - N/A   Clear
11:15 PM 36.3 °F 29.5 °F 14.4 °F 41% 29.81 in 10.0 mi SSW 9.2 mph - N/A   Clear
11:35 PM 36.1 °F 28.2 °F 14.9 °F 42% 29.81 in 10.0 mi SSW 11.5 mph - N/A   Clear
11:55 PM 36.0 °F 29.6 °F 14.7 °F 42% 29.81 in 10.0 mi SSW 8.1 mph - N/A   Clear